This is the latest recevied weather packets stored in our database for station/object VE2JOS. If no packets are shown the sender has not sent any weather packets the latest 10 day(s).
| Time | Temp. | Humidity | Pressure | Rain* | Wind** | Luminosity | Snow |
|---|---|---|---|---|---|---|---|
| 1777592737 | 9.44° C | 72% | - | 0 mm | - | - | - |
| 1777591577 | 10° C | 71% | - | 0 mm | - | - | - |
| 1777588537 | 10.56° C | 74% | - | 0 mm | - | - | - |
| 1777586137 | 10.56° C | 75% | - | 0 mm | - | - | - |
| 1777585537 | 10.56° C | 87% | - | 0 mm | - | - | - |
| 1777583736 | 10.56° C | 90% | - | 0 mm | - | - | - |
| 1777579536 | 11.67° C | 78% | - | 0 mm | - | - | - |
| 1777575936 | 12.22° C | 78% | - | 0 mm | - | - | - |
| 1777569336 | 12.78° C | 82% | - | 0 mm | - | - | - |
| 1777568136 | 12.78° C | 84% | - | 0 mm | - | - | - |
| 1777567536 | 12.78° C | 84% | - | 0 mm | - | - | - |
| 1777563336 | 11.11° C | 94% | - | 0 mm | - | - | - |
| 1777560936 | 10.56° C | 98% | - | 0 mm | - | - | - |
| 1777554336 | 11.11° C | 99% | - | 0.51 mm | - | - | - |
| 1777553756 | 11.11° C | 99% | - | 0.51 mm | - | - | - |
| 1777547738 | 10.56° C | 99% | - | 1.78 mm | - | - | - |
| 1777544737 | 10.56° C | 99% | - | 1.52 mm | - | - | - |
| 1777544136 | 10.56° C | 99% | - | 1.52 mm | - | - | - |
| 1777530936 | 12.22° C | 98% | - | 2.03 mm | - | - | - |
| 1777529736 | 12.22° C | 99% | - | 1.52 mm | - | - | - |
| 1777526136 | 12.22° C | 97% | - | 1.27 mm | - | - | - |
| 1777520736 | 13.89° C | 85% | - | 0.25 mm | - | - | - |
| 1777519536 | 13.89° C | 83% | - | 0 mm | - | - | - |
| 1777518936 | 14.44° C | 80% | - | 0 mm | - | - | - |
| 1777517176 | 14.44° C | 74% | - | 0 mm | - | - | - |
* Rain latest hour (hover to see other rain measurements)
** Current wind speed in m/s (hover to see current wind gust speed)